LGTS/SKG METAR and TAF weather

Enter ICAO airport designator
Station Type Date Time Source
LGTS METAR 2019/12/06 23:50 UTC NOAA

LGTS 062350Z 11004KT 9999 FEW025 BKN040 04/03 Q1025 NOSIG


Station Type Date Time Source
LGTS Decoded METAR 2019/12/06 23:50 UTC NOAA

Thessaloniki Airport , Greece (LGTS) 40-31N 022-58E 4M
Dec 06, 2019 - 06:50 PM EST / 2019.12.06 2350 UTC
Wind: from the ESE (110 degrees) at 5 MPH (4 KT):0
Visibility: greater than 7 mile(s):0
Sky conditions: mostly cloudy
Temperature: 39 F (4 C)
Dew Point: 37 F (3 C)
Relative Humidity: 93%
Pressure (altimeter): 30.27 in. Hg (1025 hPa)
ob: LGTS 062350Z 11004KT 9999 FEW025 BKN040 04/03 Q1025 NOSIG
cycle: 0

Station Type Date Time Source
LGTS TAF 2019/12/06 18:12 UTC NOAA

TAF LGTS 061700Z 0618/0718 VRB03KT 9999 SCT035
BECMG 0621/0623 FEW010 BKN030
TEMPO 0700/0707 5000 RA SCT008 BKN025 PROB30
TEMPO 0700/0703 4000 SHRA SCT010 FEW018TCU BKN025
BECMG 0711/0713 FEW025

Example: see airport list